Time;durP1;ratioP1;P1;durP2;ratioP2;P2;SDS_P1;SDS_P2;PMS_P1;PMS_P2;Temp;Humidity;BMP_temperature;BMP_pressure;BME280_temperature;BME280_humidity;BME280_pressure;Samples;Min_cycle;Max_cycle;Signal;HPM_P1;HPM_P2
2023/12/27 00:03:25;;;;;;;69.82;41.78;;;;;;;5.20;58.06;97867.66;10376600;28;20732;-49
2023/12/27 00:08:24;;;;;;;51.20;27.23;;;;;;;5.65;57.84;97949.25;10381581;28;20107;-49
2023/12/27 00:13:23;;;;;;;38.33;21.98;;;;;;;5.49;57.68;97927.50;10381841;28;20047;-50
2023/12/27 00:18:22;;;;;;;25.63;18.10;;;;;;;5.47;57.35;97935.19;10385284;28;20108;-49
2023/12/27 00:23:21;;;;;;;30.48;17.67;;;;;;;5.51;57.66;97926.69;10368788;28;20063;-50
2023/12/27 00:28:20;;;;;;;25.95;17.40;;;;;;;5.46;58.46;97948.91;10363829;28;20415;-51
2023/12/27 00:33:19;;;;;;;30.85;18.83;;;;;;;5.33;58.27;97911.72;10362887;28;20033;-50
2023/12/27 00:38:18;;;;;;;30.45;17.00;;;;;;;5.32;58.42;97921.94;10361140;28;20098;-51
2023/12/27 00:43:17;;;;;;;41.78;24.90;;;;;;;5.31;60.38;97959.69;10364670;28;20064;-49
2023/12/27 00:48:16;;;;;;;39.47;25.05;;;;;;;5.37;59.48;97961.56;10363675;28;20126;-49
2023/12/27 00:53:15;;;;;;;35.45;23.50;;;;;;;5.40;59.01;97953.88;10365136;28;20484;-50
2023/12/27 00:58:14;;;;;;;32.58;18.95;;;;;;;5.38;59.85;97968.41;10365565;28;20531;-50
2023/12/27 01:03:13;;;;;;;27.75;16.63;;;;;;;5.13;59.78;97943.81;10364789;28;20547;-48
2023/12/27 01:08:12;;;;;;;22.10;15.10;;;;;;;4.89;60.43;97938.94;10362490;28;20459;-51
2023/12/27 01:13:10;;;;;;;24.40;15.60;;;;;;;4.93;60.17;97935.63;10365879;28;20029;-52
2023/12/27 01:18:09;;;;;;;38.80;20.35;;;;;;;5.07;60.60;97990.00;10362797;28;20047;-49
2023/12/27 01:23:08;;;;;;;27.45;16.58;;;;;;;4.72;60.76;97925.69;10344477;28;20045;-50
2023/12/27 01:28:07;;;;;;;78.18;34.88;;;;;;;4.88;62.64;98009.22;10320716;28;20046;-50
2023/12/27 01:33:06;;;;;;;57.25;30.45;;;;;;;4.67;63.00;97994.09;10321437;28;20025;-49
2023/12/27 01:38:05;;;;;;;44.05;24.98;;;;;;;4.72;62.36;98000.22;10317782;28;20127;-49
2023/12/27 01:43:04;;;;;;;43.10;24.83;;;;;;;4.77;61.86;98000.34;10321525;28;20029;-49
2023/12/27 01:48:04;;;;;;;38.50;21.92;;;;;;;4.87;61.88;98033.16;10317572;28;20714;-49
2023/12/27 01:53:03;;;;;;;43.22;23.17;;;;;;;3.93;61.90;97868.81;10335187;28;20063;-50
2023/12/27 01:58:02;;;;;;;40.78;22.98;;;;;;;4.15;63.55;97931.94;10353550;28;20515;-50
2023/12/27 02:03:02;;;;;;;39.15;24.02;;;;;;;4.68;63.28;98032.69;10352261;28;20653;-50
2023/12/27 02:08:02;;;;;;;40.63;25.48;;;;;;;4.53;63.76;98010.84;10323485;28;20565;-50
2023/12/27 02:13:05;;;;;;;45.03;24.58;;;;;;;4.56;64.44;98045.22;10319491;28;20056;-51
2023/12/27 02:18:06;;;;;;;76.07;33.65;;;;;;;4.31;64.21;97997.41;10329913;28;20508;-50
2023/12/27 02:23:07;;;;;;;57.35;30.40;;;;;;;4.10;66.38;98025.91;10342278;28;20072;-52
2023/12/27 02:28:06;;;;;;;36.05;20.88;;;;;;;4.44;64.93;98053.44;10387309;28;20056;-50
2023/12/27 02:33:05;;;;;;;45.45;23.23;;;;;;;4.27;64.67;98036.69;10397792;28;20056;-51
2023/12/27 02:38:04;;;;;;;44.33;24.17;;;;;;;4.39;64.69;98049.88;10392193;28;20087;-50
2023/12/27 02:43:03;;;;;;;44.53;23.95;;;;;;;4.38;64.90;98062.69;10408426;28;20070;-51
2023/12/27 02:48:02;;;;;;;58.45;30.92;;;;;;;4.05;65.93;98042.91;10381810;28;20492;-50
2023/12/27 02:53:01;;;;;;;48.17;28.00;;;;;;;4.18;66.12;98073.25;10382851;28;20063;-52
2023/12/27 02:58:00;;;;;;;58.70;29.15;;;;;;;4.04;65.60;98051.44;10394462;28;20028;-50
2023/12/27 03:02:59;;;;;;;52.30;30.38;;;;;;;4.20;65.98;98089.59;10379913;28;20124;-49
2023/12/27 03:07:58;;;;;;;58.50;30.05;;;;;;;4.16;66.11;98097.16;10396304;28;20028;-50
2023/12/27 03:12:57;;;;;;;62.85;32.05;;;;;;;4.08;66.63;98115.78;10386975;28;20441;-51
2023/12/27 03:17:56;;;;;;;60.00;30.25;;;;;;;3.51;66.39;98022.44;10407381;28;20507;-50
2023/12/27 03:22:55;;;;;;;41.40;23.63;;;;;;;3.80;66.51;98072.09;10363725;28;20152;-51
2023/12/27 03:27:54;;;;;;;31.48;19.27;;;;;;;4.02;66.88;98105.31;10367211;28;20037;-50
2023/12/27 03:32:53;;;;;;;27.58;17.67;;;;;;;2.74;66.60;97896.94;10365083;28;20403;-49
2023/12/27 03:37:52;;;;;;;55.22;30.05;;;;;;;2.55;69.82;97932.22;10364825;28;20116;-50
2023/12/27 03:42:51;;;;;;;47.47;28.38;;;;;;;3.48;69.42;98083.94;10353476;28;20033;-50
2023/12/27 03:47:49;;;;;;;50.35;28.67;;;;;;;3.69;68.66;98112.84;10326851;28;20025;-49
2023/12/27 03:52:48;;;;;;;49.33;29.10;;;;;;;3.32;69.90;98109.06;10325546;28;20124;-50
2023/12/27 03:57:47;;;;;;;43.67;26.15;;;;;;;2.14;69.79;97889.88;10323890;28;20116;-52
2023/12/27 04:02:46;;;;;;;42.00;26.17;;;;;;;3.20;69.86;98093.28;10324934;28;20109;-50
2023/12/27 04:07:45;;;;;;;41.95;23.73;;;;;;;3.05;70.24;98087.63;10326619;28;20044;-50
2023/12/27 04:12:44;;;;;;;33.28;19.83;;;;;;;3.19;70.13;98140.25;10323841;28;20388;-50
2023/12/27 04:17:43;;;;;;;33.53;17.63;;;;;;;2.81;70.01;98086.84;10326772;28;20041;-50
2023/12/27 04:22:42;;;;;;;26.02;16.70;;;;;;;3.01;70.38;98133.69;10350171;28;20123;-50
2023/12/27 04:27:41;;;;;;;26.05;15.63;;;;;;;2.99;70.05;98148.13;10352765;28;20875;-51
2023/12/27 04:32:40;;;;;;;27.67;16.23;;;;;;;3.18;70.17;98164.16;10365128;28;20790;-50
2023/12/27 04:37:39;;;;;;;27.50;18.88;;;;;;;3.08;69.86;98133.91;10341488;28;20029;-51
2023/12/27 04:42:38;;;;;;;25.63;18.38;;;;;;;3.05;71.63;98139.81;10352601;28;20147;-50
2023/12/27 04:47:37;;;;;;;40.03;22.20;;;;;;;3.12;71.86;98166.50;10352785;28;20064;-50
2023/12/27 04:52:36;;;;;;;31.20;19.30;;;;;;;3.02;72.52;98162.75;10354223;28;20531;-50
2023/12/27 04:57:36;;;;;;;28.80;17.13;;;;;;;3.14;71.26;98170.00;10362314;28;20513;-49
2023/12/27 05:02:35;;;;;;;43.20;24.00;;;;;;;2.71;72.28;98124.91;10342999;28;20108;-49
2023/12/27 05:07:34;;;;;;;37.60;22.35;;;;;;;2.89;73.17;98175.97;10358353;28;20043;-51
2023/12/27 05:12:34;;;;;;;53.63;30.42;;;;;;;2.28;72.84;98102.88;10346803;28;20032;-50
2023/12/27 05:17:33;;;;;;;43.38;26.20;;;;;;;2.68;72.31;98169.25;10357552;28;20120;-50
2023/12/27 05:22:34;;;;;;;38.28;26.63;;;;;;;2.80;71.61;98210.69;10329145;28;20447;-50
2023/12/27 05:27:33;;;;;;;36.45;22.55;;;;;;;2.29;72.01;98168.63;10350592;28;20516;-50
2023/12/27 05:32:32;;;;;;;;;;;;;;;2.65;71.26;98227.19;10345517;28;20083;-50
2023/12/27 05:37:31;;;;;;;36.25;24.42;;;;;;;2.36;70.91;98183.41;10346913;28;19917;-50
2023/12/27 05:42:30;;;;;;;36.00;22.83;;;;;;;2.45;71.64;98227.31;10349124;28;20037;-50
2023/12/27 05:47:28;;;;;;;40.13;21.17;;;;;;;2.57;72.04;98263.63;10344149;28;20033;-50
2023/12/27 05:52:27;;;;;;;36.63;22.88;;;;;;;2.55;72.96;98280.63;10330857;28;20471;-49
2023/12/27 05:57:26;;;;;;;74.50;33.50;;;;;;;2.49;72.96;98280.41;10360099;28;20029;-49
2023/12/27 06:02:25;;;;;;;61.20;32.55;;;;;;;2.33;72.38;98222.56;10351114;28;20035;-50
2023/12/27 06:07:25;;;;;;;56.80;32.33;;;;;;;2.70;73.16;98290.63;10356013;28;20024;-50
2023/12/27 06:12:23;;;;;;;63.47;41.13;;;;;;;2.73;73.19;98293.28;10337223;28;20120;-49
2023/12/27 06:17:23;;;;;;;80.10;45.00;;;;;;;2.44;73.51;98261.44;10363034;28;20619;-50
2023/12/27 06:22:22;;;;;;;71.82;39.83;;;;;;;2.61;73.27;98274.00;10351931;28;20072;-49
2023/12/27 06:27:21;;;;;;;67.20;39.95;;;;;;;2.77;73.15;98284.91;10350181;28;20024;-50
2023/12/27 06:32:20;;;;;;;66.70;39.88;;;;;;;2.86;73.21;98294.59;10346358;28;20037;-50
2023/12/27 06:37:20;;;;;;;112.57;59.90;;;;;;;2.87;73.34;98304.06;10352213;28;20571;-51
2023/12/27 06:42:19;;;;;;;80.95;48.05;;;;;;;3.01;72.71;98315.72;10344610;28;20132;-50
2023/12/27 06:47:18;;;;;;;97.60;52.80;;;;;;;2.94;72.79;98300.91;10339524;28;20029;-51
2023/12/27 06:52:17;;;;;;;175.18;94.70;;;;;;;3.10;73.42;98357.91;10351202;28;20136;-50
2023/12/27 06:57:16;;;;;;;132.18;67.88;;;;;;;2.89;72.83;98299.88;10350267;28;20025;-50
2023/12/27 07:02:14;;;;;;;112.00;65.07;;;;;;;3.43;72.34;98364.28;10338497;28;20032;-52
2023/12/27 07:07:14;;;;;;;110.07;60.85;;;;;;;3.48;72.12;98361.03;10360886;28;20026;-50
2023/12/27 07:12:13;;;;;;;;;;;;;;;3.64;72.32;98392.44;10308034;28;20192;-50
2023/12/27 07:17:12;;;;;;;77.60;49.03;;;;;;;3.80;71.54;98404.13;10353487;28;20001;-50
2023/12/27 07:22:11;;;;;;;54.53;34.30;;;;;;;3.56;71.39;98375.88;10345039;28;20081;-52
2023/12/27 07:27:10;;;;;;;44.50;29.13;;;;;;;3.79;71.36;98371.56;10343009;28;20104;-50
2023/12/27 07:32:09;;;;;;;42.85;25.90;;;;;;;3.76;70.67;98337.22;10341275;28;20032;-52
2023/12/27 07:37:08;;;;;;;37.17;25.27;;;;;;;4.35;70.38;98414.59;10336964;28;20029;-51
2023/12/27 07:42:07;;;;;;;43.83;26.95;;;;;;;4.10;70.09;98338.38;10338791;28;20106;-53
2023/12/27 07:47:07;;;;;;;35.97;23.63;;;;;;;4.79;70.15;98430.63;10356741;28;20075;-52
2023/12/27 07:52:05;;;;;;;42.28;25.80;;;;;;;4.83;69.27;98381.03;10355898;28;20501;-50
2023/12/27 07:57:04;;;;;;;45.85;28.35;;;;;;;5.19;68.50;98377.91;10346178;28;20600;-50
2023/12/27 08:02:03;;;;;;;44.47;27.33;;;;;;;5.36;68.38;98383.53;10321282;28;20773;-51
2023/12/27 08:07:02;;;;;;;51.42;33.72;;;;;;;5.65;67.34;98415.28;10355980;28;20120;-56
2023/12/27 08:12:02;;;;;;;54.08;34.67;;;;;;;5.88;66.66;98418.50;10342686;28;20137;-48
2023/12/27 08:17:02;;;;;;;53.67;35.03;;;;;;;6.07;65.84;98458.53;10339799;28;20140;-51
2023/12/27 08:22:00;;;;;;;;;;;;;;;6.30;66.23;98464.34;10340056;28;20124;-49
2023/12/27 08:26:59;;;;;;;46.03;31.80;;;;;;;6.17;65.65;98404.75;10341159;28;19920;-52
2023/12/27 08:32:00;;;;;;;45.78;30.50;;;;;;;6.64;65.06;98455.81;10340687;28;20764;-50
2023/12/27 08:36:59;;;;;;;45.80;31.40;;;;;;;6.58;64.73;98416.97;10329752;28;20123;-50
2023/12/27 08:41:58;;;;;;;23.70;17.67;;;;;;;6.93;64.45;98468.56;10350287;28;20025;-49
2023/12/27 08:46:57;;;;;;;25.75;15.70;;;;;;;7.16;64.46;98484.63;10341482;28;20033;-48
2023/12/27 08:51:55;;;;;;;20.38;13.05;;;;;;;7.33;63.43;98485.00;10339454;28;20035;-50
2023/12/27 08:56:55;;;;;;;16.73;10.75;;;;;;;7.50;63.05;98457.03;10351042;28;20107;-48
2023/12/27 09:01:54;;;;;;;13.35;11.00;;;;;;;7.72;62.14;98460.97;10342665;28;20075;-47
2023/12/27 09:06:53;;;;;;;19.27;11.65;;;;;;;7.81;62.67;98456.88;10350478;28;20020;-48
2023/12/27 09:11:52;;;;;;;15.70;10.18;;;;;;;8.44;61.90;98502.09;10360943;28;20040;-48
2023/12/27 09:16:51;;;;;;;20.48;9.50;;;;;;;8.47;61.40;98453.00;10347251;28;20052;-49
2023/12/27 09:21:50;;;;;;;16.48;9.85;;;;;;;8.86;60.55;98480.44;10330883;28;20135;-49
2023/12/27 09:26:49;;;;;;;14.45;9.45;;;;;;;9.15;60.16;98477.47;10336335;28;20029;-49
2023/12/27 09:31:49;;;;;;;15.48;9.60;;;;;;;9.31;60.08;98453.56;10338028;28;20171;-51
2023/12/27 09:36:48;;;;;;;15.50;9.98;;;;;;;9.52;59.07;98429.72;10318427;28;20250;-49
2023/12/27 09:41:47;;;;;;;16.48;10.25;;;;;;;9.64;57.96;98410.88;10318672;28;20037;-51
2023/12/27 09:46:47;;;;;;;13.38;10.00;;;;;;;9.93;57.11;98428.50;10325086;28;20031;-49
2023/12/27 09:51:47;;;;;;;13.27;10.13;;;;;;;10.37;56.74;98444.59;10349160;28;20064;-49
2023/12/27 09:56:47;;;;;;;21.52;13.75;;;;;;;10.35;55.95;98422.94;10337984;28;20567;-49
2023/12/27 10:01:50;;;;;;;17.33;12.30;;;;;;;10.67;55.41;98450.94;10338651;28;20171;-49
2023/12/27 10:06:51;;;;;;;21.25;13.10;;;;;;;10.71;55.40;98421.56;10337870;28;20905;-51
2023/12/27 10:11:50;;;;;;;14.88;9.90;;;;;;;10.84;54.92;98397.44;10336565;28;20075;-50
2023/12/27 10:16:49;;;;;;;12.73;8.68;;;;;;;11.15;55.75;98433.22;10336636;28;20112;-49
2023/12/27 10:21:51;;;;;;;11.15;8.20;;;;;;;11.32;54.25;98396.97;10343681;28;20140;-50
2023/12/27 10:26:50;;;;;;;13.05;9.40;;;;;;;11.73;53.61;98402.38;10347601;28;20057;-49
2023/12/27 10:31:50;;;;;;;10.68;9.32;;;;;;;11.99;53.06;98407.69;10347249;28;20117;-49
2023/12/27 10:36:52;;;;;;;10.55;8.90;;;;;;;12.21;52.06;98426.88;10351760;28;20813;-49
2023/12/27 10:41:54;;;;;;;20.27;12.73;;;;;;;12.32;51.78;98408.69;10344261;28;20111;-51
2023/12/27 10:46:55;;;;;;;16.67;11.60;;;;;;;12.28;51.27;98402.63;10355036;28;20055;-52
2023/12/27 10:51:55;;;;;;;22.45;12.45;;;;;;;12.54;50.41;98401.81;10352170;28;20448;-49
2023/12/27 10:56:59;;;;;;;13.68;10.95;;;;;;;12.89;49.86;98411.41;10354651;28;20060;-49
2023/12/27 11:01:59;;;;;;;10.73;8.25;;;;;;;12.90;50.11;98393.13;10352811;28;20163;-50
2023/12/27 11:07:00;;;;;;;9.68;8.50;;;;;;;13.06;49.45;98383.59;10356316;28;20064;-49
2023/12/27 11:12:01;;;;;;;13.13;8.95;;;;;;;13.20;48.71;98396.59;10350483;28;20056;-49
2023/12/27 11:17:03;;;;;;;12.73;9.95;;;;;;;13.30;48.46;98420.91;10345149;28;20457;-50
2023/12/27 11:22:02;;;;;;;12.32;9.40;;;;;;;13.61;47.63;98413.06;10347226;28;20528;-50
2023/12/27 11:27:01;;;;;;;12.38;9.10;;;;;;;13.84;47.70;98413.84;10347800;28;20068;-50
2023/12/27 11:32:00;;;;;;;10.18;8.32;;;;;;;12.86;47.17;98244.66;10337378;28;20533;-51
2023/12/27 11:37:00;;;;;;;9.60;7.97;;;;;;;14.05;46.75;98417.25;10328224;28;20798;-51
2023/12/27 11:42:00;;;;;;;10.13;8.02;;;;;;;14.09;45.73;98416.38;10360601;28;21556;-49
2023/12/27 11:46:59;;;;;;;9.60;8.50;;;;;;;14.18;45.64;98413.72;10343315;28;20057;-49
2023/12/27 11:52:01;;;;;;;9.85;7.20;;;;;;;14.23;45.42;98393.69;10331905;28;20505;-49
2023/12/27 11:57:00;;;;;;;17.27;7.90;;;;;;;14.34;45.33;98397.13;10340541;28;20125;-50
2023/12/27 12:02:01;;;;;;;10.35;7.53;;;;;;;14.42;45.03;98384.00;10330378;28;20024;-51
2023/12/27 12:07:44;;;;;;;7.50;6.68;;;;;;;14.61;44.70;98406.50;10336253;28;20113;-49
2023/12/27 12:12:43;;;;;;;7.55;6.85;;;;;;;14.46;44.37;98377.03;10339362;28;20060;-49
2023/12/27 12:17:42;;;;;;;;;;;;;;;14.51;43.75;98417.91;10331894;28;20144;-48
2023/12/27 12:22:43;;;;;;;7.28;6.53;;;;;;;14.62;43.96;98412.63;10345075;28;20459;-49
2023/12/27 12:27:48;;;;;;;8.15;7.35;;;;;;;14.72;43.68;98422.16;10351627;28;20060;-51
2023/12/27 12:32:47;;;;;;;12.02;7.97;;;;;;;14.64;43.20;98389.97;10321378;28;20157;-52
2023/12/27 12:37:46;;;;;;;11.48;9.02;;;;;;;14.96;43.42;98423.69;10349656;28;20479;-52
2023/12/27 12:42:46;;;;;;;11.45;7.35;;;;;;;14.80;43.48;98373.34;10333858;28;20654;-49
2023/12/27 12:47:45;;;;;;;7.78;6.97;;;;;;;14.91;42.99;98377.59;10343013;28;20057;-50
2023/12/27 12:52:44;;;;;;;;;;;;;;;15.13;42.98;98407.91;10342652;28;20079;-49
2023/12/27 12:57:43;;;;;;;6.63;5.93;;;;;;;15.06;42.61;98390.53;10339816;28;19952;-52
2023/12/27 13:02:42;;;;;;;9.57;7.00;;;;;;;14.90;43.08;98371.50;10331701;28;20144;-51
2023/12/27 13:07:42;;;;;;;6.88;6.15;;;;;;;15.07;42.80;98405.31;10326262;28;20080;-52
2023/12/27 13:12:41;;;;;;;7.20;6.18;;;;;;;15.01;42.56;98400.13;10341519;28;20064;-49
2023/12/27 13:17:40;;;;;;;;;;;;;;;15.13;42.38;98426.19;10337865;28;20030;-49
2023/12/27 13:22:39;;;;;;;7.95;6.47;;;;;;;15.10;42.45;98414.88;10345110;28;20015;-51
2023/12/27 13:27:38;;;;;;;9.15;6.55;;;;;;;15.15;42.43;98423.56;10342003;28;20478;-51
2023/12/27 13:32:37;;;;;;;9.50;8.50;;;;;;;14.88;42.16;98399.38;10337899;28;20048;-52
2023/12/27 13:37:35;;;;;;;73.47;33.20;;;;;;;14.77;41.91;98386.41;10342591;28;20575;-51
2023/12/27 13:42:35;;;;;;;58.75;29.23;;;;;;;14.85;42.06;98399.44;10350725;28;20870;-50
2023/12/27 13:47:34;;;;;;;18.83;11.40;;;;;;;14.75;41.89;98409.06;10347343;28;20463;-50
2023/12/27 13:52:33;;;;;;;;;;;;;;;14.91;42.11;98443.78;10341582;28;20575;-50
2023/12/27 13:57:31;;;;;;;11.75;8.30;;;;;;;14.41;42.55;98398.81;10349322;28;20347;-51
2023/12/27 14:02:30;;;;;;;10.27;7.60;;;;;;;14.15;43.02;98405.94;10349489;28;20043;-50
2023/12/27 14:07:29;;;;;;;12.95;10.07;;;;;;;14.08;44.54;98440.75;10345674;28;20034;-50
2023/12/27 14:12:28;;;;;;;14.15;9.75;;;;;;;13.39;45.40;98394.84;10342984;28;20132;-50
2023/12/27 14:17:30;;;;;;;;;;;;;;;13.46;46.01;98443.47;10334119;28;20714;-49
2023/12/27 14:22:30;;;;;;;12.75;10.48;;;;;;;13.09;46.81;98413.97;10339349;28;19956;-49
2023/12/27 14:27:28;;;;;;;13.95;9.77;;;;;;;13.19;47.25;98456.53;10332876;28;20041;-49
2023/12/27 14:32:28;;;;;;;18.33;10.75;;;;;;;12.70;47.76;98413.97;10326373;28;20017;-49
2023/12/27 14:37:26;;;;;;;19.00;12.40;;;;;;;12.90;47.49;98460.88;10354454;28;20112;-49
2023/12/27 14:42:27;;;;;;;22.08;14.30;;;;;;;12.71;47.49;98439.16;10350877;28;20143;-49
2023/12/27 14:47:26;;;;;;;25.67;19.48;;;;;;;12.63;48.03;98451.31;10355169;28;20055;-50
2023/12/27 14:52:25;;;;;;;38.03;27.00;;;;;;;12.29;48.76;98442.53;10350871;28;20028;-50
2023/12/27 14:57:25;;;;;;;43.65;31.92;;;;;;;11.98;49.09;98434.56;10314319;28;20043;-48
2023/12/27 15:02:23;;;;;;;35.58;25.55;;;;;;;11.74;49.39;98439.69;10336013;28;21034;-49
2023/12/27 15:07:22;;;;;;;35.95;26.55;;;;;;;11.41;50.45;98455.06;10353933;28;20955;-48
2023/12/27 15:12:21;;;;;;;52.92;35.63;;;;;;;10.85;50.43;98419.09;10344955;28;20682;-49
2023/12/27 15:17:20;;;;;;;40.15;30.90;;;;;;;10.95;52.13;98485.88;10344615;28;20447;-52
2023/12/27 15:22:19;;;;;;;38.30;27.80;;;;;;;10.59;51.94;98475.97;10336358;28;20041;-49
2023/12/27 15:27:18;;;;;;;50.85;34.05;;;;;;;10.45;52.29;98496.56;10331757;28;20030;-52
2023/12/27 15:32:17;;;;;;;37.65;27.88;;;;;;;10.16;53.19;98480.66;10335496;28;20033;-52
2023/12/27 15:37:16;;;;;;;35.47;27.10;;;;;;;10.01;53.53;98499.50;10323868;28;20572;-49
2023/12/27 15:42:15;;;;;;;36.13;26.67;;;;;;;9.80;54.26;98506.97;10347893;28;20060;-53
2023/12/27 15:47:14;;;;;;;43.10;29.92;;;;;;;9.42;55.16;98507.25;10327752;28;20029;-50
2023/12/27 15:52:13;;;;;;;44.72;30.70;;;;;;;9.32;56.04;98517.50;10342034;28;20037;-49
2023/12/27 15:57:13;;;;;;;44.63;29.58;;;;;;;9.19;56.56;98530.19;10337001;28;20564;-50
2023/12/27 16:02:12;;;;;;;48.70;33.63;;;;;;;9.05;56.86;98540.31;10365983;28;20480;-50
2023/12/27 16:07:11;;;;;;;36.60;24.75;;;;;;;8.57;57.46;98504.91;10363995;28;20413;-49
2023/12/27 16:12:10;;;;;;;35.80;23.67;;;;;;;7.61;58.13;98360.84;10344455;28;20065;-50
2023/12/27 16:17:09;;;;;;;30.67;21.30;;;;;;;8.56;58.58;98552.31;10339619;28;20021;-50
2023/12/27 16:22:08;;;;;;;34.75;20.08;;;;;;;8.38;58.50;98539.88;10342514;28;20079;-50
2023/12/27 16:27:08;;;;;;;38.53;22.38;;;;;;;8.29;59.01;98540.56;10333759;28;20039;-49
2023/12/27 16:32:08;;;;;;;73.60;45.15;;;;;;;8.19;60.70;98567.94;10328071;28;20120;-50
2023/12/27 16:37:07;;;;;;;73.20;45.67;;;;;;;7.72;60.18;98504.88;10326750;28;20128;-52
2023/12/27 16:42:08;;;;;;;46.42;29.73;;;;;;;7.74;62.42;98562.63;10338700;28;20155;-50
2023/12/27 16:47:07;;;;;;;59.90;36.83;;;;;;;7.83;61.94;98588.69;10332145;28;20053;-50
2023/12/27 16:52:06;;;;;;;86.45;58.17;;;;;;;7.53;61.64;98552.66;10311706;28;20112;-50
2023/12/27 16:57:05;;;;;;;79.00;51.33;;;;;;;7.48;62.27;98575.81;10329353;28;20033;-52
2023/12/27 17:02:04;;;;;;;65.32;46.10;;;;;;;7.11;63.16;98528.38;10324591;28;20041;-50
2023/12/27 17:07:03;;;;;;;;;;;;;;;7.45;63.37;98604.09;10313184;28;20140;-50
2023/12/27 17:12:03;;;;;;;99.13;69.35;;;;;;;7.33;63.45;98606.34;10319734;28;19921;-52
2023/12/27 17:17:02;;;;;;;114.50;72.68;;;;;;;7.26;64.18;98610.47;10335701;28;20538;-50
2023/12/27 17:22:01;;;;;;;82.38;52.88;;;;;;;7.00;64.54;98600.34;10333020;28;20073;-50
2023/12/27 17:27:00;;;;;;;77.90;51.30;;;;;;;6.90;65.22;98589.75;10337496;28;20048;-52
2023/12/27 17:32:00;;;;;;;59.08;33.13;;;;;;;6.63;65.12;98574.38;10320968;28;20514;-52
2023/12/27 17:36:59;;;;;;;99.05;47.20;;;;;;;5.82;65.47;98442.41;10351601;28;20120;-51
2023/12/27 17:41:58;;;;;;;107.38;49.95;;;;;;;6.78;65.93;98613.50;10306789;28;20040;-50
2023/12/27 17:46:57;;;;;;;79.30;48.28;;;;;;;6.54;66.28;98595.66;10322979;28;20021;-55
2023/12/27 17:51:57;;;;;;;101.68;64.68;;;;;;;6.47;66.09;98607.50;10332126;28;20049;-50
2023/12/27 17:56:56;;;;;;;160.60;104.80;;;;;;;6.29;66.27;98597.50;10338673;28;20587;-50
2023/12/27 18:01:55;;;;;;;148.45;92.63;;;;;;;6.03;69.71;98606.16;10351593;28;20580;-50
2023/12/27 18:06:54;;;;;;;113.57;74.13;;;;;;;5.36;71.00;98533.69;10347723;28;20064;-50
2023/12/27 18:11:53;;;;;;;100.68;65.97;;;;;;;5.78;71.00;98623.41;10371451;28;20033;-50
2023/12/27 18:16:52;;;;;;;100.75;59.58;;;;;;;5.68;71.06;98613.66;10354924;28;20459;-51
2023/12/27 18:21:51;;;;;;;100.93;65.03;;;;;;;5.71;70.31;98624.91;10360959;28;20280;-50
2023/12/27 18:26:50;;;;;;;148.00;91.68;;;;;;;5.78;70.86;98646.59;10353942;28;20021;-50
2023/12/27 18:31:49;;;;;;;115.88;69.53;;;;;;;5.13;71.26;98562.13;10352148;28;20061;-51
2023/12/27 18:36:50;;;;;;;102.15;58.33;;;;;;;5.38;70.61;98622.13;10360586;28;20041;-50
2023/12/27 18:41:52;;;;;;;106.97;66.63;;;;;;;5.38;71.68;98645.28;10355964;28;20053;-50
2023/12/27 18:46:51;;;;;;;118.57;73.07;;;;;;;5.27;71.81;98670.63;10346045;28;20121;-51
2023/12/27 18:51:50;;;;;;;121.20;73.13;;;;;;;4.99;71.78;98640.50;10349035;28;20209;-51
2023/12/27 18:56:48;;;;;;;109.70;69.63;;;;;;;5.09;71.36;98668.31;10342953;28;20036;-50
2023/12/27 19:01:47;;;;;;;106.75;70.88;;;;;;;4.98;72.31;98669.63;10360873;28;20384;-51
2023/12/27 19:06:46;;;;;;;116.72;75.70;;;;;;;4.57;72.15;98604.72;10354194;28;20029;-50
2023/12/27 19:11:45;;;;;;;145.65;93.15;;;;;;;4.91;72.15;98672.78;10352637;28;20124;-51
2023/12/27 19:16:44;;;;;;;150.75;94.13;;;;;;;3.80;71.97;98494.00;10350844;28;20037;-50
2023/12/27 19:21:44;;;;;;;122.03;78.75;;;;;;;4.84;72.29;98675.94;10361629;28;20044;-53
2023/12/27 19:26:43;;;;;;;96.57;63.50;;;;;;;4.85;72.69;98701.72;10348529;28;20060;-52
2023/12/27 19:31:43;;;;;;;82.25;54.13;;;;;;;4.50;73.41;98648.97;10339760;28;20071;-50
2023/12/27 19:36:41;;;;;;;;;;;;;;;4.74;72.79;98700.44;10357790;28;20049;-51
2023/12/27 19:41:40;;;;;;;90.95;57.75;;;;;;;4.53;72.91;98685.09;10356582;28;19948;-52
2023/12/27 19:46:40;;;;;;;110.45;66.13;;;;;;;4.57;73.73;98716.91;10359358;28;20123;-52
2023/12/27 19:51:40;;;;;;;122.88;74.70;;;;;;;4.24;74.15;98665.97;10362352;28;20056;-50
2023/12/27 19:56:40;;;;;;;116.05;70.55;;;;;;;4.38;75.08;98729.06;10344187;28;20064;-49
2023/12/27 20:01:39;;;;;;;125.72;76.90;;;;;;;4.29;75.37;98723.56;10326994;28;20060;-51
2023/12/27 20:06:40;;;;;;;123.97;76.30;;;;;;;4.19;75.21;98714.59;10325344;28;20037;-49
2023/12/27 20:11:39;;;;;;;127.00;75.10;;;;;;;4.09;74.93;98738.19;10336726;28;20083;-49
2023/12/27 20:16:38;;;;;;;132.45;87.07;;;;;;;4.16;75.94;98739.31;10320509;28;20124;-49
2023/12/27 20:21:37;;;;;;;144.55;87.55;;;;;;;4.10;77.00;98746.75;10318160;28;20103;-50
2023/12/27 20:26:36;;;;;;;146.50;90.30;;;;;;;3.95;76.24;98747.91;10325681;28;20615;-50
2023/12/27 20:31:35;;;;;;;144.52;89.00;;;;;;;3.52;76.53;98691.31;10329386;28;20073;-50
2023/12/27 20:36:39;;;;;;;158.35;87.88;;;;;;;3.47;76.66;98688.56;10337192;28;20157;-49
2023/12/27 20:41:38;;;;;;;147.70;89.53;;;;;;;3.84;76.71;98761.97;10345209;28;20121;-49
2023/12/27 20:46:37;;;;;;;157.90;96.63;;;;;;;3.76;76.91;98758.22;10357681;28;20116;-50
2023/12/27 20:51:36;;;;;;;;;;;;;;;3.81;76.62;98775.56;10359639;28;20115;-50
2023/12/27 20:56:38;;;;;;;159.05;100.93;;;;;;;3.65;76.93;98750.06;10346868;28;19942;-50
2023/12/27 21:01:41;;;;;;;178.88;107.38;;;;;;;3.67;76.71;98770.69;10347206;28;20075;-50
2023/12/27 21:06:40;;;;;;;151.90;92.13;;;;;;;3.51;77.17;98741.78;10352183;28;20068;-50
2023/12/27 21:11:40;;;;;;;151.32;90.18;;;;;;;3.58;76.57;98773.72;10338664;28;20036;-52
2023/12/27 21:16:40;;;;;;;155.25;94.00;;;;;;;3.34;77.00;98761.59;10341045;28;20122;-50
2023/12/27 21:21:47;;;;;;;224.80;124.50;;;;;;;3.24;78.18;98759.44;10350014;28;20079;-50
2023/12/27 21:26:46;;;;;;;199.13;108.45;;;;;;;2.95;78.15;98733.34;10336950;28;20643;-51
2023/12/27 21:31:45;;;;;;;167.35;95.82;;;;;;;3.01;78.38;98766.97;10323738;28;20535;-50
2023/12/27 21:36:44;;;;;;;162.73;92.60;;;;;;;3.08;77.69;98782.66;10312600;28;20029;-48
2023/12/27 21:41:43;;;;;;;141.18;78.68;;;;;;;3.16;77.33;98794.13;10334764;28;20025;-50
2023/12/27 21:46:42;;;;;;;152.63;84.38;;;;;;;2.81;77.12;98754.94;10334026;28;20481;-49
2023/12/27 21:51:42;;;;;;;132.90;75.07;;;;;;;2.86;77.63;98779.09;10345153;28;20057;-49
2023/12/27 21:56:42;;;;;;;142.57;83.00;;;;;;;2.91;77.96;98799.81;10326758;28;20069;-50
2023/12/27 22:01:41;;;;;;;131.30;77.65;;;;;;;2.64;77.51;98751.59;10356026;28;20064;-50
2023/12/27 22:06:42;;;;;;;125.47;73.82;;;;;;;2.71;77.98;98773.28;10353437;28;20113;-50
2023/12/27 22:11:41;;;;;;;131.85;79.10;;;;;;;2.63;78.00;98769.44;10350580;28;20080;-50
2023/12/27 22:16:40;;;;;;;145.35;83.82;;;;;;;2.80;78.41;98794.19;10357053;28;20087;-50
2023/12/27 22:21:41;;;;;;;123.32;74.88;;;;;;;2.67;78.49;98784.19;10365389;28;20526;-51
2023/12/27 22:26:39;;;;;;;116.90;70.70;;;;;;;2.73;78.12;98787.03;10362617;28;20057;-50
2023/12/27 22:31:38;;;;;;;100.30;62.85;;;;;;;2.40;78.05;98733.41;10353125;28;20041;-50
2023/12/27 22:36:37;;;;;;;86.07;50.58;;;;;;;2.62;78.52;98763.47;10350831;28;20120;-49
2023/12/27 22:41:36;;;;;;;77.05;46.13;;;;;;;2.57;79.24;98773.50;10354517;28;20036;-49
2023/12/27 22:46:36;;;;;;;111.00;65.88;;;;;;;2.44;78.78;98757.47;10355810;28;20456;-49
2023/12/27 22:51:35;;;;;;;127.30;74.80;;;;;;;2.33;78.87;98750.16;10354488;28;20068;-50
2023/12/27 22:56:34;;;;;;;117.68;65.45;;;;;;;2.24;78.95;98742.03;10349876;28;20051;-52